Time;durP1;ratioP1;P1;durP2;ratioP2;P2;SDS_P1;SDS_P2;PMS_P1;PMS_P2;Temp;Humidity;BMP_temperature;BMP_pressure;BME280_temperature;BME280_humidity;BME280_pressure;Samples;Min_cycle;Max_cycle;Signal;HPM_P1;HPM_P2
2023/08/16 00:02:03;;;;;;;15.77;10.35;;;19.10;99.90;;;;;;5055394;28;20488;-65
2023/08/16 00:04:28;;;;;;;22.05;11.15;;;19.00;99.90;;;;;;5054956;28;20377;-65
2023/08/16 00:06:54;;;;;;;26.40;11.13;;;19.00;99.90;;;;;;5055033;28;20024;-65
2023/08/16 00:09:20;;;;;;;17.20;10.80;;;18.90;99.90;;;;;;5054605;28;20466;-65
2023/08/16 00:11:47;;;;;;;20.52;12.40;;;18.90;99.90;;;;;;5054984;28;20025;-66
2023/08/16 00:14:12;;;;;;;24.70;12.25;;;18.90;99.90;;;;;;5054839;28;20025;-65
2023/08/16 00:16:38;;;;;;;19.38;12.15;;;18.80;99.90;;;;;;5054564;28;20369;-65
2023/08/16 00:19:04;;;;;;;22.02;12.95;;;18.90;99.90;;;;;;5054943;28;20044;-66
2023/08/16 00:21:29;;;;;;;22.13;12.15;;;18.90;99.90;;;;;;5054708;28;20036;-64
2023/08/16 00:23:55;;;;;;;19.33;12.13;;;19.00;99.90;;;;;;5054632;28;20029;-65
2023/08/16 00:26:21;;;;;;;18.88;11.65;;;19.00;99.90;;;;;;5054903;28;20029;-64
2023/08/16 00:28:48;;;;;;;19.33;11.80;;;19.00;99.90;;;;;;5054291;28;20056;-65
2023/08/16 00:31:14;;;;;;;18.77;11.63;;;19.00;99.90;;;;;;5055067;28;20032;-66
2023/08/16 00:33:39;;;;;;;24.00;12.00;;;19.00;99.90;;;;;;5054494;28;20107;-65
2023/08/16 00:36:07;;;;;;;23.80;12.30;;;18.90;99.90;;;;;;5054231;28;20409;-65
2023/08/16 00:38:33;;;;;;;18.83;11.75;;;18.80;99.90;;;;;;5054416;28;20021;-65
2023/08/16 00:40:59;;;;;;;17.05;11.02;;;18.70;99.90;;;;;;5054656;28;20017;-65
2023/08/16 00:43:25;;;;;;;20.52;11.50;;;18.50;99.90;;;;;;5054244;28;20361;-65
2023/08/16 00:45:51;;;;;;;16.42;10.70;;;18.50;99.90;;;;;;5054007;28;20020;-65
2023/08/16 00:48:18;;;;;;;19.30;11.68;;;18.40;99.90;;;;;;5053665;28;20032;-65
2023/08/16 00:50:45;;;;;;;22.15;12.13;;;18.50;99.90;;;;;;5054208;28;20158;-65
2023/08/16 00:53:13;;;;;;;15.63;11.48;;;18.60;99.90;;;;;;5054595;28;20094;-64
2023/08/16 00:55:39;;;;;;;18.02;11.98;;;18.50;99.90;;;;;;5054110;28;20028;-66
2023/08/16 00:58:05;;;;;;;16.45;11.25;;;18.50;99.90;;;;;;5053768;28;20017;-65
2023/08/16 01:00:31;;;;;;;23.35;12.05;;;18.50;99.90;;;;;;5054265;28;20158;-65
2023/08/16 01:02:57;;;;;;;23.13;11.93;;;18.60;99.90;;;;;;5054493;28;20064;-65
2023/08/16 01:05:23;;;;;;;21.88;12.43;;;18.50;99.90;;;;;;5054220;28;20053;-65
2023/08/16 01:07:50;;;;;;;17.73;10.85;;;18.50;99.90;;;;;;5053634;28;20468;-65
2023/08/16 01:10:15;;;;;;;20.42;10.27;;;18.50;99.90;;;;;;5053562;28;20351;-65
2023/08/16 01:12:55;;;;;;;21.67;10.18;;;18.40;99.90;;;;;;5054638;28;20055;-65
2023/08/16 01:15:35;;;;;;;13.15;9.57;;;18.30;99.90;;;;;;5054111;28;20021;-65
2023/08/16 01:18:02;;;;;;;16.90;10.52;;;18.30;99.90;;;;;;5053639;28;20021;-66
2023/08/16 01:20:30;;;;;;;16.98;10.50;;;18.20;99.90;;;;;;5053993;28;20021;-65
2023/08/16 01:23:37;;;;;;;19.90;10.20;;;18.20;99.90;;;;;;5053549;28;20025;-65
2023/08/16 01:26:22;;;;;;;19.88;10.20;;;18.20;99.90;;;;;;5054196;28;20039;-64
2023/08/16 01:28:49;;;;;;;19.02;10.90;;;18.10;99.90;;;;;;5053624;28;20330;-65
2023/08/16 01:31:16;;;;;;;19.77;11.20;;;18.10;99.90;;;;;;5053543;28;20100;-65
2023/08/16 01:33:41;;;;;;;22.65;11.93;;;18.10;99.90;;;;;;5053851;28;20032;-66
2023/08/16 01:36:07;;;;;;;17.17;11.48;;;18.20;99.90;;;;;;5053599;28;20015;-65
2023/08/16 01:38:33;;;;;;;23.48;11.98;;;18.20;99.90;;;;;;5053550;28;20143;-65
2023/08/16 01:41:27;;;;;;;19.65;12.40;;;18.20;99.90;;;;;;5053522;28;20052;-65
2023/08/16 01:43:55;;;;;;;19.50;12.95;;;18.10;99.90;;;;;;5053723;28;20029;-65
2023/08/16 01:46:22;;;;;;;19.30;12.30;;;18.20;99.90;;;;;;5053427;28;20096;-64
2023/08/16 01:48:48;;;;;;;24.05;12.38;;;18.20;99.90;;;;;;5057309;28;20037;-64
2023/08/16 01:51:15;;;;;;;17.08;11.57;;;18.20;99.90;;;;;;5057289;28;20036;-65
2023/08/16 01:53:40;;;;;;;20.40;12.63;;;18.20;99.90;;;;;;5057775;28;20052;-65
2023/08/16 01:56:06;;;;;;;21.30;12.20;;;18.20;99.90;;;;;;5058021;28;20433;-65
2023/08/16 01:58:31;;;;;;;20.15;12.13;;;18.20;99.90;;;;;;5057482;28;20063;-65
2023/08/16 02:00:57;;;;;;;18.33;11.07;;;18.20;99.90;;;;;;5057319;28;20505;-66
2023/08/16 02:03:23;;;;;;;17.35;10.75;;;18.20;99.90;;;;;;5057265;28;20063;-65
2023/08/16 02:05:48;;;;;;;20.02;10.93;;;18.20;99.90;;;;;;5057261;28;20166;-66
2023/08/16 02:08:14;;;;;;;18.90;10.93;;;18.10;99.90;;;;;;5057290;28;20024;-65
2023/08/16 02:10:40;;;;;;;23.75;10.63;;;18.20;99.90;;;;;;5057427;28;20029;-66
2023/08/16 02:13:05;;;;;;;15.27;11.38;;;18.20;99.90;;;;;;5056928;28;20024;-65
2023/08/16 02:15:31;;;;;;;18.98;11.55;;;18.20;99.90;;;;;;5057344;28;20041;-65
2023/08/16 02:17:56;;;;;;;18.40;10.73;;;18.10;99.90;;;;;;5056227;28;20025;-65
2023/08/16 02:20:22;;;;;;;18.77;11.55;;;18.00;99.90;;;;;;5056735;28;20116;-67
2023/08/16 02:22:48;;;;;;;24.92;11.18;;;18.00;99.90;;;;;;5056928;28;20041;-68
2023/08/16 02:25:13;;;;;;;16.77;10.98;;;18.00;99.90;;;;;;5056915;28;20036;-67
2023/08/16 02:27:40;;;;;;;17.30;10.30;;;18.00;99.90;;;;;;5056921;28;20058;-67
2023/08/16 02:30:07;;;;;;;20.48;11.10;;;18.00;99.90;;;;;;5057080;28;20025;-67
2023/08/16 02:32:33;;;;;;;18.85;12.15;;;18.00;99.90;;;;;;5054613;28;20037;-67
2023/08/16 02:34:59;;;;;;;20.83;13.20;;;18.00;99.90;;;;;;5057492;28;20049;-66
2023/08/16 02:37:25;;;;;;;21.20;12.63;;;18.00;99.90;;;;;;5056696;28;20031;-67
2023/08/16 02:39:51;;;;;;;20.25;12.23;;;18.00;99.90;;;;;;5056706;28;20021;-67
2023/08/16 02:42:17;;;;;;;23.67;13.05;;;17.90;99.90;;;;;;5056739;28;20025;-67
2023/08/16 02:44:43;;;;;;;34.17;12.85;;;17.90;99.90;;;;;;5056859;28;20347;-67
2023/08/16 02:47:09;;;;;;;23.20;11.93;;;18.00;99.90;;;;;;5056498;28;20028;-67
2023/08/16 02:49:34;;;;;;;22.27;11.80;;;17.90;99.90;;;;;;5056502;28;20052;-67
2023/08/16 02:52:00;;;;;;;24.88;12.65;;;18.00;99.90;;;;;;5056247;28;20454;-67
2023/08/16 02:54:25;;;;;;;19.17;12.52;;;17.90;99.90;;;;;;5056435;28;20098;-67
2023/08/16 02:56:51;;;;;;;21.17;12.35;;;18.00;99.90;;;;;;5056071;28;20151;-68
2023/08/16 02:59:17;;;;;;;27.30;12.73;;;18.00;99.90;;;;;;5056357;28;20025;-67
2023/08/16 03:01:43;;;;;;;23.58;13.15;;;17.90;99.90;;;;;;5056538;28;20031;-67
2023/08/16 03:04:10;;;;;;;17.20;11.82;;;17.90;99.90;;;;;;5056226;28;20029;-67
2023/08/16 03:06:35;;;;;;;18.95;11.65;;;17.80;99.90;;;;;;5056324;28;20021;-67
2023/08/16 03:09:01;;;;;;;16.42;11.70;;;17.80;99.90;;;;;;5055996;28;20028;-67
2023/08/16 03:11:26;;;;;;;16.13;11.23;;;17.80;99.90;;;;;;5056237;28;20090;-67
2023/08/16 03:13:52;;;;;;;19.92;11.90;;;17.80;99.90;;;;;;5038814;28;20459;-67
2023/08/16 03:16:18;;;;;;;20.33;11.23;;;17.70;99.90;;;;;;5055821;28;20047;-66
2023/08/16 03:18:43;;;;;;;16.40;11.80;;;17.70;99.90;;;;;;5055803;28;20361;-67
2023/08/16 03:21:09;;;;;;;21.25;11.52;;;17.70;99.90;;;;;;5055970;28;20035;-67
2023/08/16 03:23:34;;;;;;;23.80;11.45;;;17.70;99.90;;;;;;5055883;28;20037;-67
2023/08/16 03:26:00;;;;;;;16.98;11.13;;;17.70;99.90;;;;;;5055911;28;20024;-67
2023/08/16 03:28:26;;;;;;;16.27;10.60;;;17.60;99.90;;;;;;5055866;28;20464;-67
2023/08/16 03:30:51;;;;;;;17.30;11.90;;;17.60;99.90;;;;;;5056283;28;20025;-67
2023/08/16 03:33:17;;;;;;;18.98;11.48;;;17.60;99.90;;;;;;5055492;28;20025;-67
2023/08/16 03:35:43;;;;;;;15.65;10.70;;;17.60;99.90;;;;;;5055700;28;20025;-67
2023/08/16 03:38:08;;;;;;;15.77;10.68;;;17.60;99.90;;;;;;5055612;28;20028;-67
2023/08/16 03:40:34;;;;;;;20.33;10.98;;;17.50;99.90;;;;;;5055956;28;20028;-67
2023/08/16 03:43:00;;;;;;;18.85;11.30;;;17.50;99.90;;;;;;5055996;28;20079;-67
2023/08/16 03:45:26;;;;;;;20.38;10.65;;;17.50;99.90;;;;;;5055575;28;20526;-66
2023/08/16 03:47:55;;;;;;;23.83;10.88;;;17.50;99.90;;;;;;5055291;28;20068;-67
2023/08/16 03:50:21;;;;;;;17.35;10.63;;;17.40;99.90;;;;;;5056131;28;20106;-67
2023/08/16 03:52:47;;;;;;;18.30;11.18;;;17.30;99.90;;;;;;5055416;28;20028;-67
2023/08/16 03:55:12;;;;;;;16.50;10.70;;;17.20;99.90;;;;;;5055706;28;20029;-67
2023/08/16 03:57:38;;;;;;;18.00;11.32;;;17.10;99.90;;;;;;5055875;28;20025;-67
2023/08/16 04:00:09;;;;;;;15.30;10.00;;;17.10;99.90;;;;;;5055590;28;20365;-67
2023/08/16 04:02:34;;;;;;;16.98;10.52;;;17.20;99.90;;;;;;5055175;28;20032;-66
2023/08/16 04:05:08;;;;;;;20.83;10.65;;;17.20;99.90;;;;;;5055969;28;20025;-67
2023/08/16 04:07:34;;;;;;;16.75;10.52;;;17.20;99.90;;;;;;5055452;28;20032;-67
2023/08/16 04:10:00;;;;;;;14.68;10.00;;;17.20;99.90;;;;;;5054288;28;20374;-67
2023/08/16 04:12:25;;;;;;;17.83;10.98;;;17.10;99.90;;;;;;5054980;28;20028;-68
2023/08/16 04:14:51;;;;;;;21.20;12.13;;;17.20;99.90;;;;;;5053839;28;20366;-68
2023/08/16 04:17:16;;;;;;;21.65;10.95;;;17.20;99.90;;;;;;5053767;28;20020;-67
2023/08/16 04:19:42;;;;;;;17.45;10.82;;;17.20;99.90;;;;;;5055456;28;20060;-67
2023/08/16 04:22:07;;;;;;;17.05;10.73;;;17.10;99.90;;;;;;5055151;28;20017;-67
2023/08/16 04:24:33;;;;;;;18.70;10.20;;;17.00;99.90;;;;;;5054466;28;20032;-67
2023/08/16 04:26:59;;;;;;;20.98;10.98;;;17.10;99.90;;;;;;5054772;28;20017;-67
2023/08/16 04:29:24;;;;;;;166.27;12.57;;;17.10;99.90;;;;;;5055009;28;20401;-67
2023/08/16 04:31:50;;;;;;;27.20;11.18;;;17.10;99.90;;;;;;5054976;28;20021;-67
2023/08/16 04:34:16;;;;;;;17.02;11.23;;;17.00;99.90;;;;;;5054922;28;20400;-67
2023/08/16 04:36:41;;;;;;;16.48;10.80;;;17.10;99.90;;;;;;5054622;28;20063;-67
2023/08/16 04:39:08;;;;;;;16.73;11.70;;;17.10;99.90;;;;;;5054503;28;20025;-67
2023/08/16 04:41:34;;;;;;;25.20;10.73;;;17.10;99.90;;;;;;5054440;28;20121;-67
2023/08/16 04:43:59;;;;;;;135.20;11.90;;;17.20;99.90;;;;;;5054429;28;20116;-67
2023/08/16 04:46:25;;;;;;;50.88;11.38;;;17.20;99.90;;;;;;5054143;28;20052;-66
2023/08/16 04:48:52;;;;;;;73.93;11.02;;;17.20;99.90;;;;;;5053980;28;20113;-66
2023/08/16 04:51:18;;;;;;;15.05;10.98;;;17.20;99.90;;;;;;5054327;28;20036;-68
2023/08/16 04:53:45;;;;;;;15.40;11.13;;;17.10;99.90;;;;;;5054078;28;20024;-68
2023/08/16 04:56:11;;;;;;;13.57;9.77;;;17.10;99.90;;;;;;5054278;28;20027;-67
2023/08/16 04:58:36;;;;;;;13.38;9.10;;;17.00;99.90;;;;;;5053982;28;20021;-67
2023/08/16 05:01:02;;;;;;;12.15;9.68;;;17.10;99.90;;;;;;5054579;28;20098;-67
2023/08/16 05:03:30;;;;;;;11.70;9.32;;;17.20;99.90;;;;;;5054088;28;20061;-67
2023/08/16 05:06:00;;;;;;;13.68;9.45;;;17.40;99.90;;;;;;5054441;28;20099;-67
2023/08/16 05:08:26;;;;;;;14.02;9.40;;;17.40;99.90;;;;;;5054355;28;20025;-66
2023/08/16 05:10:52;;;;;;;11.68;9.10;;;17.60;99.90;;;;;;5054037;28;20406;-67
2023/08/16 05:13:17;;;;;;;11.55;9.10;;;17.70;99.90;;;;;;5053703;28;20032;-66
2023/08/16 05:15:44;;;;;;;10.40;8.00;;;17.80;99.90;;;;;;5053961;28;20028;-67
2023/08/16 05:18:10;;;;;;;12.00;8.85;;;17.90;99.90;;;;;;5054376;28;20040;-67
2023/08/16 05:20:36;;;;;;;11.80;8.75;;;17.90;99.90;;;;;;5054215;28;20418;-67
2023/08/16 05:23:01;;;;;;;14.00;9.70;;;17.90;99.90;;;;;;5053806;28;20075;-67
2023/08/16 05:25:27;;;;;;;14.98;9.65;;;18.00;99.90;;;;;;5054124;28;20391;-68
2023/08/16 05:27:53;;;;;;;16.38;10.35;;;18.10;99.90;;;;;;5053797;28;20450;-67
2023/08/16 05:30:18;;;;;;;16.45;10.90;;;18.00;99.90;;;;;;5053990;28;20024;-67
2023/08/16 05:32:44;;;;;;;16.63;10.63;;;18.10;99.90;;;;;;5053751;28;20032;-67
2023/08/16 05:35:09;;;;;;;18.88;10.40;;;18.10;99.90;;;;;;5053377;28;20347;-67
2023/08/16 05:37:35;;;;;;;18.33;9.77;;;18.20;99.90;;;;;;5053408;28;20021;-67
2023/08/16 05:40:01;;;;;;;16.45;11.15;;;18.20;99.90;;;;;;5053527;28;20442;-68
2023/08/16 05:42:28;;;;;;;17.15;10.40;;;18.20;99.90;;;;;;5053666;28;20017;-68
2023/08/16 05:44:54;;;;;;;16.17;9.60;;;18.10;99.90;;;;;;5052721;28;20027;-67
2023/08/16 05:47:19;;;;;;;14.52;9.57;;;18.00;99.90;;;;;;5053226;28;20025;-67
2023/08/16 05:49:45;;;;;;;18.15;11.45;;;18.00;99.90;;;;;;5053620;28;20041;-67
2023/08/16 05:52:11;;;;;;;16.20;10.27;;;18.20;99.90;;;;;;5053720;28;20029;-67
2023/08/16 05:54:36;;;;;;;22.48;12.18;;;18.40;99.90;;;;;;5053392;28;20028;-68
2023/08/16 05:57:02;;;;;;;17.02;12.02;;;18.50;99.90;;;;;;5053380;28;20022;-67
2023/08/16 05:59:27;;;;;;;19.02;12.70;;;18.70;99.90;;;;;;5053416;28;20017;-68
2023/08/16 06:01:53;;;;;;;23.90;13.90;;;18.90;99.90;;;;;;5053516;28;20135;-67
2023/08/16 06:04:19;;;;;;;22.92;13.90;;;19.00;99.90;;;;;;5052923;28;20029;-67
2023/08/16 06:06:44;;;;;;;19.38;12.77;;;19.20;99.90;;;;;;5053222;28;20422;-67
2023/08/16 06:09:10;;;;;;;18.92;11.38;;;19.20;99.90;;;;;;5052936;28;20365;-67
2023/08/16 06:11:36;;;;;;;16.30;10.40;;;19.10;99.90;;;;;;5053308;28;20032;-67
2023/08/16 06:14:03;;;;;;;16.17;11.40;;;19.20;99.90;;;;;;5053471;28;20021;-69
2023/08/16 06:16:28;;;;;;;19.27;12.02;;;19.40;99.90;;;;;;5053120;28;20029;-68
2023/08/16 06:18:54;;;;;;;20.48;10.77;;;19.50;99.90;;;;;;5052860;28;20079;-67
2023/08/16 06:21:19;;;;;;;18.83;11.27;;;19.60;99.90;;;;;;5053135;28;20100;-68
2023/08/16 06:23:46;;;;;;;18.38;12.32;;;19.50;99.90;;;;;;5052591;28;20048;-67
2023/08/16 06:26:12;;;;;;;22.60;14.15;;;19.60;99.90;;;;;;5053239;28;20475;-67
2023/08/16 06:28:38;;;;;;;24.20;13.07;;;19.60;99.90;;;;;;5053018;28;20029;-67
2023/08/16 06:31:03;;;;;;;18.63;12.85;;;19.70;99.90;;;;;;5052280;28;20100;-68
2023/08/16 06:33:30;;;;;;;23.48;12.82;;;19.80;99.90;;;;;;5055003;28;20025;-67
2023/08/16 06:35:56;;;;;;;22.65;13.45;;;19.90;99.90;;;;;;5056687;28;20029;-68
2023/08/16 06:38:22;;;;;;;22.73;13.60;;;20.10;99.90;;;;;;5056720;28;20044;-67
2023/08/16 06:40:49;;;;;;;19.65;13.15;;;20.30;99.90;;;;;;5057096;28;20071;-68
2023/08/16 06:43:15;;;;;;;20.23;12.70;;;20.40;99.90;;;;;;5057149;28;20064;-67
2023/08/16 06:45:40;;;;;;;19.00;12.80;;;20.60;99.90;;;;;;5057090;28;20060;-67
2023/08/16 06:48:07;;;;;;;21.73;14.73;;;20.70;99.90;;;;;;5054956;28;20083;-67
2023/08/16 06:50:33;;;;;;;19.55;12.63;;;20.80;99.90;;;;;;5057166;28;20072;-67
2023/08/16 06:52:58;;;;;;;18.45;12.35;;;20.90;99.90;;;;;;5056386;28;20020;-68
2023/08/16 06:55:24;;;;;;;19.60;12.50;;;21.00;99.90;;;;;;5057157;28;20341;-68
2023/08/16 06:57:50;;;;;;;22.17;12.23;;;21.10;99.90;;;;;;5057066;28;20029;-68
2023/08/16 07:00:17;;;;;;;22.83;12.70;;;21.20;99.90;;;;;;5056181;28;20434;-68
2023/08/16 07:02:43;;;;;;;21.58;13.40;;;21.40;99.90;;;;;;5056126;28;20631;-68
2023/08/16 07:05:12;;;;;;;22.15;13.15;;;21.50;99.90;;;;;;5056667;28;20059;-68
2023/08/16 07:07:37;;;;;;;20.63;13.00;;;21.60;99.90;;;;;;5056325;28;20528;-68
2023/08/16 07:10:04;;;;;;;17.52;12.43;;;21.60;99.90;;;;;;5056086;28;20060;-67
2023/08/16 07:12:30;;;;;;;19.65;12.32;;;21.80;99.90;;;;;;5056062;28;20106;-67
2023/08/16 07:14:55;;;;;;;16.58;11.60;;;21.90;99.90;;;;;;5055913;28;20091;-68
2023/08/16 07:17:21;;;;;;;19.27;11.05;;;22.00;99.90;;;;;;5055844;28;20017;-67
2023/08/16 07:19:50;;;;;;;18.27;11.40;;;22.20;99.90;;;;;;5056380;28;20025;-67
2023/08/16 07:22:16;;;;;;;22.27;11.63;;;22.40;99.90;;;;;;5055838;28;20032;-67
2023/08/16 07:24:42;;;;;;;17.25;10.20;;;22.70;99.90;;;;;;5055689;28;20037;-67
2023/08/16 07:27:07;;;;;;;19.17;10.68;;;22.80;99.90;;;;;;5056221;28;20032;-67
2023/08/16 07:29:33;;;;;;;15.32;10.07;;;23.10;99.90;;;;;;5055619;28;20040;-67
2023/08/16 07:32:01;;;;;;;18.95;10.73;;;23.40;99.90;;;;;;5056000;28;20057;-68
2023/08/16 07:34:26;;;;;;;21.10;10.00;;;23.50;99.90;;;;;;5055611;28;20048;-67
2023/08/16 07:36:52;;;;;;;21.17;10.40;;;23.60;99.90;;;;;;5055547;28;20017;-68
2023/08/16 07:39:18;;;;;;;12.50;9.38;;;23.60;99.90;;;;;;5055179;28;20028;-68
2023/08/16 07:41:43;;;;;;;21.05;9.48;;;23.70;99.90;;;;;;5055445;28;20025;-67
2023/08/16 07:44:10;;;;;;;17.80;9.23;;;23.80;99.90;;;;;;5055244;28;20151;-68
2023/08/16 07:46:35;;;;;;;14.40;9.38;;;23.90;99.90;;;;;;5055379;28;20489;-67
2023/08/16 07:49:01;;;;;;;20.88;10.48;;;23.90;99.90;;;;;;5054930;28;20125;-68
2023/08/16 07:51:28;;;;;;;15.55;9.30;;;24.00;99.90;;;;;;5055209;28;20021;-68
2023/08/16 07:53:53;;;;;;;19.70;8.80;;;24.20;99.90;;;;;;5055174;28;20083;-68
2023/08/16 07:56:19;;;;;;;13.40;9.32;;;24.50;99.90;;;;;;5054887;28;20463;-68
2023/08/16 07:58:44;;;;;;;14.02;9.65;;;24.60;99.90;;;;;;5055371;28;20021;-68
2023/08/16 08:01:10;;;;;;;13.45;8.55;;;24.70;99.90;;;;;;5055070;28;20094;-68
2023/08/16 08:03:36;;;;;;;22.30;10.48;;;24.90;99.90;;;;;;5055212;28;20112;-68
2023/08/16 08:06:03;;;;;;;13.32;8.98;;;25.20;99.90;;;;;;5054826;28;20373;-68
2023/08/16 08:08:29;;;;;;;13.85;9.23;;;25.20;99.90;;;;;;5055404;28;20438;-68
2023/08/16 08:10:55;;;;;;;21.55;9.25;;;25.30;99.90;;;;;;5055341;28;20025;-68
2023/08/16 08:13:20;;;;;;;14.93;9.00;;;25.40;99.90;;;;;;5055063;28;20021;-68
2023/08/16 08:15:46;;;;;;;15.65;8.90;;;25.50;99.90;;;;;;5054904;28;20461;-68
2023/08/16 08:18:12;;;;;;;15.95;8.95;;;25.50;99.90;;;;;;5054972;28;20031;-68
2023/08/16 08:20:38;;;;;;;14.07;8.88;;;25.60;99.90;;;;;;5055346;28;20388;-68
2023/08/16 08:23:04;;;;;;;14.35;9.23;;;25.70;99.90;;;;;;5055058;28;20039;-68
2023/08/16 08:25:30;;;;;;;13.30;8.63;;;25.70;99.90;;;;;;5054807;28;20025;-67
2023/08/16 08:27:56;;;;;;;13.45;8.85;;;25.60;99.90;;;;;;5054993;28;20029;-68
2023/08/16 08:30:21;;;;;;;11.48;8.40;;;25.70;99.90;;;;;;5054432;28;20476;-68
2023/08/16 08:32:48;;;;;;;17.27;8.30;;;25.90;99.90;;;;;;5054278;28;20017;-68
2023/08/16 08:35:13;;;;;;;16.13;8.32;;;26.10;99.90;;;;;;5055262;28;20025;-68
2023/08/16 08:37:39;;;;;;;15.05;8.23;;;26.30;99.90;;;;;;5054175;28;20450;-68
2023/08/16 08:40:05;;;;;;;11.48;8.10;;;26.60;99.90;;;;;;5054443;28;20017;-68
2023/08/16 08:42:31;;;;;;;11.95;7.60;;;26.90;99.90;;;;;;5054225;28;20021;-68
2023/08/16 08:44:59;;;;;;;13.05;7.63;;;27.10;99.90;;;;;;5054665;28;20031;-68
2023/08/16 08:47:24;;;;;;;12.30;7.63;;;27.00;99.90;;;;;;5054165;28;20032;-68
2023/08/16 08:49:51;;;;;;;13.73;8.10;;;26.90;99.90;;;;;;5054566;28;20045;-68
2023/08/16 08:52:18;;;;;;;11.90;8.45;;;26.90;99.90;;;;;;5054287;28;20021;-68
2023/08/16 08:54:44;;;;;;;10.75;8.50;;;27.00;99.90;;;;;;5054151;28;20040;-68
2023/08/16 08:57:11;;;;;;;17.33;8.93;;;27.00;99.90;;;;;;5053769;28;20096;-68
2023/08/16 08:59:40;;;;;;;13.30;9.05;;;26.90;99.90;;;;;;5054590;28;20028;-68
2023/08/16 09:02:07;;;;;;;14.45;7.45;;;27.00;99.90;;;;;;5053783;28;20025;-68
2023/08/16 09:04:33;;;;;;;14.32;8.75;;;27.10;99.90;;;;;;5054237;28;20060;-68
2023/08/16 09:07:04;;;;;;;16.85;8.38;;;27.20;99.90;;;;;;5053904;28;20053;-67
2023/08/16 09:09:30;;;;;;;12.93;8.27;;;27.30;99.90;;;;;;5053946;28;20050;-68
2023/08/16 09:11:57;;;;;;;12.18;7.95;;;27.30;99.90;;;;;;5053781;28;20029;-67
2023/08/16 09:14:22;;;;;;;15.20;8.07;;;27.40;99.90;;;;;;5053842;28;20116;-68
2023/08/16 09:16:48;;;;;;;15.45;8.05;;;27.30;99.90;;;;;;5053761;28;20410;-68
2023/08/16 09:19:14;;;;;;;12.77;7.03;;;27.40;99.90;;;;;;5054131;28;20402;-68
2023/08/16 09:21:43;;;;;;;13.25;7.70;;;27.50;99.90;;;;;;5054047;28;20049;-67
2023/08/16 09:24:09;;;;;;;13.30;7.68;;;27.60;99.90;;;;;;5053905;28;20028;-67
2023/08/16 09:26:37;;;;;;;11.07;7.13;;;27.60;99.90;;;;;;5053936;28;20021;-68
2023/08/16 09:29:03;;;;;;;18.70;8.40;;;27.70;99.90;;;;;;5053569;28;20031;-68
2023/08/16 09:31:30;;;;;;;12.90;7.28;;;27.80;99.90;;;;;;5053664;28;20043;-67
2023/08/16 09:33:56;;;;;;;13.00;7.57;;;27.90;99.90;;;;;;5053622;28;20033;-68
2023/08/16 09:36:22;;;;;;;14.05;7.32;;;27.80;99.90;;;;;;5053592;28;20021;-68
2023/08/16 09:38:48;;;;;;;7.63;6.78;;;27.80;99.90;;;;;;5053574;28;20024;-68
2023/08/16 09:41:16;;;;;;;11.32;6.60;;;27.90;99.90;;;;;;5053531;28;20029;-68
2023/08/16 09:43:42;;;;;;;11.13;6.90;;;28.00;99.90;;;;;;5053783;28;20114;-68
2023/08/16 09:46:09;;;;;;;11.90;7.25;;;28.20;99.90;;;;;;5053492;28;20029;-68
2023/08/16 09:48:35;;;;;;;13.30;7.40;;;28.30;99.90;;;;;;5053149;28;20037;-69
2023/08/16 09:51:07;;;;;;;13.85;7.60;;;28.30;99.90;;;;;;5054324;28;20087;-68
2023/08/16 09:53:33;;;;;;;17.48;7.20;;;28.20;99.90;;;;;;5053503;28;20032;-68
2023/08/16 09:56:00;;;;;;;10.50;7.00;;;28.30;99.90;;;;;;5053493;28;20028;-68
2023/08/16 09:58:27;;;;;;;14.68;7.03;;;28.50;99.90;;;;;;5053451;28;20095;-68
2023/08/16 10:00:58;;;;;;;9.38;6.97;;;28.70;99.90;;;;;;5053386;28;20029;-68
2023/08/16 10:03:24;;;;;;;11.05;6.47;;;28.60;99.90;;;;;;5053915;28;20041;-68
2023/08/16 10:05:52;;;;;;;8.82;6.55;;;28.60;99.90;;;;;;5053638;28;20021;-68
2023/08/16 10:08:19;;;;;;;10.35;6.55;;;28.70;99.90;;;;;;5055108;28;20057;-67
2023/08/16 10:10:46;;;;;;;9.55;6.80;;;28.80;99.90;;;;;;5057640;28;20056;-67
2023/08/16 10:13:14;;;;;;;10.50;6.38;;;28.80;99.90;;;;;;5057318;28;20150;-66
2023/08/16 10:15:44;;;;;;;11.20;6.40;;;28.70;99.90;;;;;;5057567;28;20397;-67
2023/08/16 10:18:12;;;;;;;11.40;6.60;;;28.70;99.90;;;;;;5057001;28;20032;-67
2023/08/16 10:20:39;;;;;;;12.60;6.35;;;29.00;99.90;;;;;;5057480;28;20102;-68
2023/08/16 10:23:06;;;;;;;9.40;6.50;;;29.30;99.90;;;;;;5057326;28;20029;-67
2023/08/16 10:25:47;;;;;;;8.35;5.47;;;29.40;99.90;;;;;;5056722;28;20472;-68
2023/08/16 10:28:20;;;;;;;11.80;6.07;;;29.50;99.90;;;;;;5057549;28;20111;-68
2023/08/16 10:30:51;;;;;;;9.98;4.95;;;29.60;99.90;;;;;;5057380;28;20094;-68
2023/08/16 10:33:22;;;;;;;6.25;4.43;;;29.60;99.90;;;;;;5056688;28;20428;-67
2023/08/16 10:35:50;;;;;;;8.65;4.63;;;29.80;99.90;;;;;;5056913;28;20017;-69
2023/08/16 10:38:18;;;;;;;6.97;4.60;;;29.80;99.90;;;;;;5056723;28;20017;-67
2023/08/16 10:40:56;;;;;;;9.40;5.05;;;29.90;99.90;;;;;;5057235;28;20029;-67
2023/08/16 10:43:35;;;;;;;6.15;4.70;;;30.20;99.90;;;;;;5056678;28;20044;-68
2023/08/16 10:46:01;;;;;;;7.88;4.35;;;30.50;99.90;;;;;;5056745;28;20442;-68
2023/08/16 10:48:34;;;;;;;7.93;4.85;;;30.50;99.90;;;;;;5056502;28;20036;-68
2023/08/16 10:51:04;;;;;;;7.22;4.38;;;30.60;99.90;;;;;;5056676;28;20053;-67
2023/08/16 10:53:30;;;;;;;;;;;30.60;99.90;;;;;;5056630;28;20025;-67
2023/08/16 10:55:56;;;;;;;7.90;4.68;;;30.60;99.90;;;;;;5056715;28;20364;-67
2023/08/16 10:58:23;;;;;;;7.90;4.60;;;30.50;99.90;;;;;;5056442;28;20024;-67
2023/08/16 11:00:59;;;;;;;9.00;3.85;;;30.40;99.90;;;;;;5056468;28;20043;-67
2023/08/16 11:03:32;;;;;;;4.70;4.20;;;30.60;99.90;;;;;;5056811;28;20036;-68
2023/08/16 11:06:07;;;;;;;5.22;3.78;;;30.60;99.90;;;;;;5056786;28;20430;-68
2023/08/16 11:08:32;;;;;;;9.52;5.32;;;30.70;99.90;;;;;;5056684;28;20045;-67
2023/08/16 11:11:04;;;;;;;6.60;4.60;;;30.80;99.90;;;;;;5056270;28;20024;-67
2023/08/16 11:13:30;;;;;;;7.75;4.13;;;30.90;99.90;;;;;;5056480;28;20028;-67
2023/08/16 11:15:59;;;;;;;5.13;3.67;;;30.80;99.90;;;;;;5056160;28;20366;-66
2023/08/16 11:18:32;;;;;;;10.40;3.90;;;30.70;99.90;;;;;;5055337;28;20032;-68
2023/08/16 11:20:59;;;;;;;5.65;3.92;;;30.80;99.90;;;;;;5056023;28;20033;-67
2023/08/16 11:23:39;;;;;;;7.32;4.07;;;30.90;99.90;;;;;;5055962;28;20032;-67
2023/08/16 11:26:06;;;;;;;;;;;31.00;99.90;;;;;;5056372;28;20029;-67
2023/08/16 11:28:33;;;;;;;5.60;3.88;;;31.00;99.00;;;;;;5056197;28;19907;-67
2023/08/16 11:31:00;;;;;;;9.07;4.55;;;31.00;99.90;;;;;;5055865;28;20021;-69
2023/08/16 11:33:34;;;;;;;8.65;4.05;;;31.20;98.60;;;;;;5055838;28;20025;-67
2023/08/16 11:36:01;;;;;;;6.57;3.90;;;31.20;99.90;;;;;;5056365;28;20021;-67
2023/08/16 11:38:27;;;;;;;9.10;3.95;;;31.10;99.30;;;;;;5056095;28;20071;-67
2023/08/16 11:40:54;;;;;;;6.60;3.97;;;31.20;97.80;;;;;;5056718;28;20143;-68
2023/08/16 11:43:28;;;;;;;6.93;4.53;;;31.40;98.10;;;;;;5056919;28;20060;-67
2023/08/16 11:45:55;;;;;;;7.53;4.03;;;31.50;98.00;;;;;;5058566;28;20032;-67
2023/08/16 11:48:21;;;;;;;5.05;3.70;;;31.60;98.20;;;;;;5059123;28;20025;-69
2023/08/16 11:50:48;;;;;;;5.65;4.07;;;31.70;99.40;;;;;;5062535;28;20029;-67
2023/08/16 11:53:18;;;;;;;6.95;4.78;;;31.90;99.90;;;;;;5067139;28;20074;-67
2023/08/16 11:56:01;;;;;;;5.57;4.03;;;32.20;99.90;;;;;;5060705;28;20108;-67
2023/08/16 11:58:27;;;;;;;17.02;5.47;;;32.30;97.30;;;;;;5055370;28;20029;-67
2023/08/16 12:00:53;;;;;;;7.85;3.80;;;32.10;96.50;;;;;;5055956;28;20029;-67
2023/08/16 12:03:19;;;;;;;8.00;4.32;;;31.80;97.70;;;;;;5055673;28;20025;-67
2023/08/16 12:05:48;;;;;;;12.25;4.22;;;31.80;96.80;;;;;;5055170;28;20017;-66
2023/08/16 12:08:19;;;;;;;12.27;4.78;;;31.60;96.00;;;;;;5053814;28;20079;-67
2023/08/16 12:10:54;;;;;;;5.97;3.75;;;31.30;97.30;;;;;;5055396;28;20031;-67
2023/08/16 12:13:20;;;;;;;10.98;4.38;;;31.40;96.30;;;;;;5055607;28;20029;-67
2023/08/16 12:15:46;;;;;;;6.70;3.67;;;31.60;98.10;;;;;;5055258;28;20074;-67
2023/08/16 12:18:14;;;;;;;6.90;4.25;;;31.90;95.10;;;;;;5054618;28;20033;-67
2023/08/16 12:20:40;;;;;;;5.47;3.92;;;31.80;94.80;;;;;;5054789;28;20033;-67
2023/08/16 12:23:07;;;;;;;5.50;3.70;;;31.90;96.00;;;;;;5054665;28;20037;-67
2023/08/16 12:25:34;;;;;;;4.82;3.67;;;32.00;97.50;;;;;;5054483;28;20043;-67
2023/08/16 12:28:01;;;;;;;6.45;3.63;;;32.20;95.40;;;;;;5054652;28;20446;-67
2023/08/16 12:30:28;;;;;;;7.88;4.25;;;32.40;93.50;;;;;;5053964;28;20357;-68
2023/08/16 12:32:54;;;;;;;8.43;4.10;;;32.60;95.70;;;;;;5054514;28;20119;-68